Time;durP1;ratioP1;P1;durP2;ratioP2;P2;SDS_P1;SDS_P2;PMS_P1;PMS_P2;Temp;Humidity;BMP_temperature;BMP_pressure;BME280_temperature;BME280_humidity;BME280_pressure;Samples;Min_cycle;Max_cycle;Signal;HPM_P1;HPM_P2
2022/07/18 00:02:00;;;;;;;8.63;2.85;;;;;;;15.44;67.60;102329.50;5107294;28;20514;-73
2022/07/18 00:04:26;;;;;;;4.07;2.60;;;;;;;15.41;67.54;102326.09;5097276;28;20041;-73
2022/07/18 00:06:53;;;;;;;7.57;3.47;;;;;;;15.34;68.24;102324.75;5087015;28;20112;-74
2022/07/18 00:09:19;;;;;;;8.10;3.05;;;;;;;15.28;69.03;102324.19;5087172;28;20036;-74
2022/07/18 00:11:45;;;;;;;6.03;2.50;;;;;;;15.23;68.94;102320.88;5089625;28;20092;-71
2022/07/18 00:14:11;;;;;;;5.32;3.05;;;;;;;15.21;68.76;102325.59;5068665;28;20546;-75
2022/07/18 00:16:36;;;;;;;6.60;2.75;;;;;;;15.19;68.16;102313.84;5085652;28;20050;-71
2022/07/18 00:19:02;;;;;;;5.22;2.35;;;;;;;15.16;68.38;102316.81;5087553;28;20114;-73
2022/07/18 00:21:28;;;;;;;5.15;3.05;;;;;;;15.12;67.94;102312.53;5087115;28;20036;-75
2022/07/18 00:23:53;;;;;;;5.97;2.85;;;;;;;15.13;68.34;102306.03;5086390;28;20527;-73
2022/07/18 00:26:19;;;;;;;4.13;2.60;;;;;;;15.07;68.51;102302.84;5085989;28;20081;-75
2022/07/18 00:28:44;;;;;;;8.60;2.65;;;;;;;15.01;69.15;102302.28;5085502;28;20040;-73
2022/07/18 00:31:09;;;;;;;18.25;3.40;;;;;;;14.97;69.71;102300.75;5086266;28;20140;-75
2022/07/18 00:33:35;;;;;;;29.33;4.38;;;;;;;14.95;69.77;102299.06;5087111;28;20041;-74
2022/07/18 00:36:00;;;;;;;18.08;3.42;;;;;;;14.91;70.05;102297.53;5097867;28;20032;-74
2022/07/18 00:38:25;;;;;;;13.95;3.38;;;;;;;14.88;70.33;102300.50;5086998;28;20048;-74
2022/07/18 00:40:51;;;;;;;14.95;3.50;;;;;;;14.82;70.68;102299.00;5085885;28;20102;-74
2022/07/18 00:43:16;;;;;;;20.02;4.45;;;;;;;14.76;70.77;102294.84;5085561;28;20035;-71
2022/07/18 00:45:46;;;;;;;19.55;4.18;;;;;;;14.72;70.95;102295.13;5086222;28;20501;-71
2022/07/18 00:48:13;;;;;;;15.15;3.75;;;;;;;14.69;71.12;102292.63;5087295;28;20586;-74
2022/07/18 00:50:39;;;;;;;32.00;4.68;;;;;;;14.63;71.60;102288.41;5086196;28;20544;-75
2022/07/18 00:53:05;;;;;;;12.77;3.60;;;;;;;14.60;71.75;102285.03;5086094;28;20126;-74
2022/07/18 00:55:31;;;;;;;20.63;4.18;;;;;;;14.53;71.10;102285.41;5084667;28;20139;-74
2022/07/18 00:57:58;;;;;;;19.42;3.92;;;;;;;14.54;71.51;102291.75;5083073;28;20039;-74
2022/07/18 01:03:08;;;;;;;21.10;3.92;;;;;;;14.48;70.41;102281.22;5085260;28;20035;-75
2022/07/18 01:05:33;;;;;;;9.20;3.55;;;;;;;14.46;71.19;102280.41;5086167;28;20020;-74
2022/07/18 01:07:58;;;;;;;13.82;5.15;;;;;;;14.42;71.83;102281.59;5084456;28;20043;-74
2022/07/18 01:10:24;;;;;;;16.77;4.75;;;;;;;14.36;71.75;102273.75;5085534;28;20718;-74
2022/07/18 01:12:49;;;;;;;18.95;3.83;;;;;;;14.37;71.24;102278.28;5085043;28;20155;-74
2022/07/18 01:15:14;;;;;;;17.50;3.97;;;;;;;14.32;70.84;102272.22;5104812;28;20113;-74
2022/07/18 01:17:40;;;;;;;13.23;3.47;;;;;;;14.33;70.51;102273.97;5093735;28;20475;-74
2022/07/18 01:20:07;;;;;;;9.05;3.00;;;;;;;14.28;71.37;102266.94;5086342;28;20400;-74
2022/07/18 01:22:32;;;;;;;24.42;3.78;;;;;;;14.25;71.64;102271.72;5084327;28;20133;-73
2022/07/18 01:24:58;;;;;;;16.45;4.47;;;;;;;14.21;72.59;102267.44;5085162;28;20098;-73
2022/07/18 01:27:24;;;;;;;19.65;3.95;;;;;;;14.19;72.54;102264.81;5089501;28;20027;-74
2022/07/18 01:29:52;;;;;;;15.43;3.33;;;;;;;14.17;72.83;102272.22;5105525;28;20486;-74
2022/07/18 01:32:18;;;;;;;16.05;3.80;;;;;;;14.13;72.64;102267.94;5088218;28;20471;-73
2022/07/18 01:34:46;;;;;;;11.77;3.95;;;;;;;14.08;73.20;102269.19;5086498;28;20115;-74
2022/07/18 01:37:12;;;;;;;15.45;3.25;;;;;;;14.04;72.56;102272.16;5085514;28;20526;-75
2022/07/18 01:39:38;;;;;;;18.00;3.78;;;;;;;14.01;72.69;102269.59;5085705;28;20188;-72
2022/07/18 01:42:06;;;;;;;11.20;3.90;;;;;;;13.98;73.56;102272.53;5084616;28;20237;-75
2022/07/18 01:44:33;;;;;;;7.55;4.55;;;;;;;13.96;73.08;102262.69;5084877;28;20123;-73
2022/07/18 01:46:59;;;;;;;10.95;3.72;;;;;;;13.95;72.67;102270.00;5085180;28;20044;-74
2022/07/18 01:49:29;;;;;;;10.15;4.07;;;;;;;13.95;72.77;102267.28;5095816;28;20035;-74
2022/07/18 01:51:56;;;;;;;5.10;3.20;;;;;;;13.94;72.28;102270.09;5098465;28;20123;-75
2022/07/18 01:54:31;;;;;;;8.85;3.35;;;;;;;13.89;72.17;102264.91;5085805;28;20073;-74
2022/07/18 01:56:58;;;;;;;8.27;3.90;;;;;;;13.87;72.85;102264.13;5084493;28;20078;-74
2022/07/18 01:59:24;;;;;;;10.68;4.30;;;;;;;13.84;73.46;102257.97;5085447;28;20483;-74
2022/07/18 02:01:50;;;;;;;8.88;3.95;;;;;;;13.82;73.35;102268.16;5082932;28;20047;-74
2022/07/18 02:04:16;;;;;;;10.55;4.20;;;;;;;13.76;73.68;102273.03;5086164;28;20047;-75
2022/07/18 02:06:42;;;;;;;11.20;4.15;;;;;;;13.74;73.71;102264.03;5085457;28;20516;-74
2022/07/18 02:09:08;;;;;;;8.15;4.03;;;;;;;13.71;73.27;102271.56;5084091;28;20146;-74
2022/07/18 02:11:34;;;;;;;7.00;3.88;;;;;;;13.68;73.87;102263.53;5083297;28;20051;-75
2022/07/18 02:14:00;;;;;;;7.63;3.42;;;;;;;13.65;74.37;102256.41;5066150;28;20056;-76
2022/07/18 02:16:25;;;;;;;9.50;3.67;;;;;;;13.62;74.34;102253.88;5085142;28;20516;-73
2022/07/18 02:18:51;;;;;;;6.97;3.80;;;;;;;13.64;73.75;102245.56;5085485;28;20036;-76
2022/07/18 02:21:16;;;;;;;6.57;3.47;;;;;;;13.61;72.84;102243.91;5085072;28;20252;-70
2022/07/18 02:23:43;;;;;;;7.25;3.22;;;;;;;13.62;73.11;102242.06;5086372;28;20034;-75
2022/07/18 02:26:11;;;;;;;8.82;3.47;;;;;;;13.59;72.72;102234.03;5083913;28;20443;-75
2022/07/18 02:28:36;;;;;;;3.88;2.88;;;;;;;13.58;73.41;102237.75;5084463;28;20111;-75
2022/07/18 02:31:03;;;;;;;9.73;3.08;;;;;;;13.57;73.22;102233.25;5083973;28;20180;-75
2022/07/18 02:33:29;;;;;;;7.30;3.78;;;;;;;13.57;72.81;102234.16;5084826;28;20031;-75
2022/07/18 02:35:54;;;;;;;4.53;3.33;;;;;;;13.55;73.14;102243.41;5085728;28;20028;-75
2022/07/18 02:38:19;;;;;;;12.57;3.28;;;;;;;13.52;72.48;102244.47;5085679;28;20087;-75
2022/07/18 02:40:45;;;;;;;7.20;4.00;;;;;;;13.47;73.80;102239.28;5085437;28;20119;-71
2022/07/18 02:43:10;;;;;;;6.32;3.92;;;;;;;13.46;74.28;102240.28;5084318;28;20486;-75
2022/07/18 02:45:35;;;;;;;6.85;3.33;;;;;;;13.42;74.15;102237.81;5084574;28;20796;-75
2022/07/18 02:48:01;;;;;;;7.03;3.95;;;;;;;13.39;74.63;102233.44;5083494;28;20465;-75
2022/07/18 02:50:27;;;;;;;5.60;3.83;;;;;;;13.38;74.56;102233.50;5085473;28;20071;-75
2022/07/18 02:52:52;;;;;;;8.73;4.97;;;;;;;13.36;75.15;102236.34;5086362;28;20134;-75
2022/07/18 02:55:18;;;;;;;6.25;3.92;;;;;;;13.34;74.93;102242.91;5089133;28;20035;-74
2022/07/18 02:57:43;;;;;;;9.48;4.65;;;;;;;13.30;75.33;102236.75;5088569;28;20415;-75
2022/07/18 03:00:12;;;;;;;5.93;3.90;;;;;;;13.28;75.35;102235.94;5087975;28;20503;-75
2022/07/18 03:02:38;;;;;;;8.18;4.15;;;;;;;13.27;75.22;102240.53;5086891;28;20077;-76
2022/07/18 03:05:05;;;;;;;8.23;4.47;;;;;;;13.22;75.05;102231.72;5088192;28;20058;-75
2022/07/18 03:07:30;;;;;;;7.35;3.97;;;;;;;13.20;73.99;102232.78;5088117;28;20181;-75
2022/07/18 03:09:56;;;;;;;7.68;4.30;;;;;;;13.20;74.38;102232.78;5088447;28;20526;-75
2022/07/18 03:12:21;;;;;;;7.35;3.20;;;;;;;13.11;74.53;102220.56;5089859;28;20160;-76
2022/07/18 03:14:47;;;;;;;5.97;3.83;;;;;;;13.11;75.44;102219.69;5087646;28;20123;-74
2022/07/18 03:17:12;;;;;;;6.65;3.90;;;;;;;13.11;74.57;102215.09;5088458;28;20359;-75
2022/07/18 03:19:38;;;;;;;7.63;4.05;;;;;;;13.09;75.55;102221.63;5086672;28;20036;-75
2022/07/18 03:22:04;;;;;;;6.47;3.63;;;;;;;13.05;76.19;102209.97;5087757;28;20424;-76
2022/07/18 03:24:30;;;;;;;5.55;3.92;;;;;;;13.05;75.41;102211.84;5088090;28;20032;-73
2022/07/18 03:26:56;;;;;;;7.30;4.22;;;;;;;13.00;75.63;102210.25;5088243;28;20549;-75
2022/07/18 03:29:21;;;;;;;7.35;4.30;;;;;;;12.97;76.29;102201.41;5088462;28;20107;-73
2022/07/18 03:31:47;;;;;;;8.65;4.63;;;;;;;12.96;75.99;102205.09;5087665;28;20043;-74
2022/07/18 03:34:12;;;;;;;8.13;4.38;;;;;;;12.98;76.06;102209.50;5088715;28;20040;-74
2022/07/18 03:36:38;;;;;;;8.02;4.93;;;;;;;12.97;76.15;102204.13;5092485;28;20027;-75
2022/07/18 03:39:05;;;;;;;8.30;4.60;;;;;;;12.95;75.82;102206.06;5090058;28;20040;-75
2022/07/18 03:41:31;;;;;;;10.50;4.82;;;;;;;12.94;75.12;102198.84;5069849;28;20147;-76
2022/07/18 03:43:56;;;;;;;12.40;4.75;;;;;;;12.90;76.42;102195.41;5084234;28;20027;-75
2022/07/18 03:46:22;;;;;;;9.95;4.95;;;;;;;12.84;77.92;102205.84;5088772;28;20099;-74
2022/07/18 03:48:48;;;;;;;12.70;5.07;;;;;;;12.85;76.21;102204.88;5086495;28;20032;-74
2022/07/18 03:51:14;;;;;;;8.23;4.80;;;;;;;12.89;76.00;102206.44;5088153;28;20494;-74
2022/07/18 03:53:39;;;;;;;8.00;4.18;;;;;;;12.89;75.58;102206.44;5087832;28;20050;-75
2022/07/18 03:56:05;;;;;;;11.25;5.13;;;;;;;12.89;75.58;102203.72;5096585;28;20122;-76
2022/07/18 03:58:30;;;;;;;9.32;4.72;;;;;;;12.88;76.14;102204.69;5088032;28;20043;-76
2022/07/18 04:00:55;;;;;;;8.20;4.97;;;;;;;12.85;77.52;102199.41;5103180;28;20489;-75
2022/07/18 04:03:21;;;;;;;7.50;4.53;;;;;;;12.85;76.62;102200.28;5108397;28;20090;-74
2022/07/18 04:05:46;;;;;;;6.60;4.82;;;;;;;12.88;77.09;102200.09;5092618;28;20391;-71
2022/07/18 04:08:12;;;;;;;6.72;4.20;;;;;;;12.89;77.01;102201.84;5086505;28;20578;-74
2022/07/18 04:10:39;;;;;;;7.63;4.13;;;;;;;12.91;76.19;102199.91;5087319;28;20054;-76
2022/07/18 04:13:05;;;;;;;5.32;4.30;;;;;;;12.95;76.58;102196.00;5083609;28;20052;-76
2022/07/18 04:15:31;;;;;;;8.80;4.32;;;;;;;13.02;76.39;102202.88;5086860;28;20131;-76
2022/07/18 04:17:57;;;;;;;8.88;4.53;;;;;;;13.05;75.47;102187.25;5087085;28;20119;-76
2022/07/18 04:20:22;;;;;;;6.95;3.92;;;;;;;13.08;76.10;102181.59;5087445;28;20062;-76
2022/07/18 04:22:50;;;;;;;7.63;4.15;;;;;;;13.10;75.83;102183.25;5086460;28;20028;-75
2022/07/18 04:25:17;;;;;;;8.43;4.65;;;;;;;13.12;75.43;102183.19;5087576;28;20032;-75
2022/07/18 04:27:42;;;;;;;7.95;4.53;;;;;;;13.14;76.35;102181.22;5086091;28;20064;-76
2022/07/18 04:30:08;;;;;;;6.72;4.30;;;;;;;13.15;76.73;102180.25;5085004;28;20078;-75
2022/07/18 04:32:34;;;;;;;8.15;4.43;;;;;;;13.17;76.25;102175.59;5087201;28;20032;-76
2022/07/18 04:34:59;;;;;;;7.40;4.03;;;;;;;13.18;76.54;102177.31;5088783;28;20160;-75
2022/07/18 04:37:24;;;;;;;5.47;4.05;;;;;;;13.17;77.43;102160.06;5091014;28;20028;-76
2022/07/18 04:39:50;;;;;;;6.18;3.95;;;;;;;13.21;76.90;102166.22;5086339;28;20104;-76
2022/07/18 04:42:15;;;;;;;7.63;4.18;;;;;;;13.23;77.04;102158.81;5087036;28;20035;-74
2022/07/18 04:44:40;;;;;;;7.20;3.97;;;;;;;13.26;77.10;102166.84;5085726;28;20154;-76
2022/07/18 04:47:06;;;;;;;6.03;4.13;;;;;;;13.27;76.76;102166.72;5086277;28;20162;-75
2022/07/18 04:49:31;;;;;;;8.50;5.13;;;;;;;13.30;77.33;102175.75;5085032;28;20039;-75
2022/07/18 04:51:56;;;;;;;8.25;4.85;;;;;;;13.32;77.17;102171.91;5099165;28;20039;-75
2022/07/18 04:54:22;;;;;;;9.05;5.15;;;;;;;13.36;76.57;102168.00;5087025;28;20427;-76
2022/07/18 04:56:47;;;;;;;10.75;4.03;;;;;;;13.41;76.34;102176.81;5085477;28;20419;-71
2022/07/18 04:59:12;;;;;;;7.28;4.50;;;;;;;13.44;76.80;102173.88;5081595;28;20108;-76
2022/07/18 05:01:38;;;;;;;7.22;5.20;;;;;;;13.50;76.63;102176.22;5083932;28;20085;-75
2022/07/18 05:04:03;;;;;;;10.55;4.50;;;;;;;13.53;77.93;102176.03;5098123;28;20100;-75
2022/07/18 05:06:29;;;;;;;7.85;4.18;;;;;;;13.57;75.99;102173.09;5087041;28;20117;-76
2022/07/18 05:08:54;;;;;;;7.90;4.15;;;;;;;13.66;76.05;102169.75;5086058;28;20494;-75
2022/07/18 05:11:20;;;;;;;6.25;4.20;;;;;;;13.75;75.49;102171.91;5067304;28;20043;-75
2022/07/18 05:13:45;;;;;;;6.57;4.47;;;;;;;13.80;75.46;102175.22;5092324;28;20379;-75
2022/07/18 05:16:10;;;;;;;7.63;4.82;;;;;;;13.87;76.68;102178.44;5105850;28;20034;-76
2022/07/18 05:18:36;;;;;;;7.05;4.38;;;;;;;13.91;76.81;102175.41;5098779;28;20036;-75
2022/07/18 05:21:01;;;;;;;10.18;4.85;;;;;;;13.94;77.01;102180.69;5085514;28;20020;-76
2022/07/18 05:23:26;;;;;;;10.32;5.03;;;;;;;13.98;76.95;102184.97;5084629;28;20526;-78
2022/07/18 05:25:52;;;;;;;7.90;4.38;;;;;;;14.07;76.56;102174.41;5084662;28;20344;-73
2022/07/18 05:28:17;;;;;;;7.72;5.18;;;;;;;14.17;76.22;102167.34;5083703;28;20059;-77
2022/07/18 05:30:42;;;;;;;8.98;4.35;;;;;;;14.21;75.72;102180.72;5082896;28;20092;-74
2022/07/18 05:33:08;;;;;;;11.63;4.50;;;;;;;14.28;76.32;102173.00;5097594;28;20390;-78
2022/07/18 05:35:33;;;;;;;9.77;4.63;;;;;;;14.31;76.46;102178.25;5091997;28;20156;-76
2022/07/18 05:37:59;;;;;;;14.25;7.80;;;;;;;14.29;78.47;102178.34;5085244;28;20059;-76
2022/07/18 05:40:24;;;;;;;13.90;7.35;;;;;;;14.37;76.84;102180.59;5086036;28;20471;-72
2022/07/18 05:42:49;;;;;;;8.88;5.38;;;;;;;14.46;76.09;102179.97;5086098;28;20036;-75
2022/07/18 05:45:15;;;;;;;12.48;6.32;;;;;;;14.56;76.78;102182.13;5088285;28;20043;-70
2022/07/18 05:47:41;;;;;;;10.82;5.63;;;;;;;14.67;75.17;102179.53;5084609;28;20467;-73
2022/07/18 05:50:08;;;;;;;13.65;6.85;;;;;;;14.74;74.57;102178.13;5090946;28;20420;-75
2022/07/18 05:52:33;;;;;;;11.90;6.13;;;;;;;14.83;73.26;102180.25;5084646;28;20064;-75
2022/07/18 05:54:59;;;;;;;9.77;6.85;;;;;;;14.94;73.63;102182.22;5084237;28;20490;-74
2022/07/18 05:57:24;;;;;;;11.13;6.20;;;;;;;15.04;72.78;102180.59;5087455;28;20039;-74
2022/07/18 05:59:50;;;;;;;13.18;7.53;;;;;;;15.15;72.36;102177.97;5084515;28;20545;-75
2022/07/18 06:02:15;;;;;;;12.32;7.50;;;;;;;15.20;71.59;102178.53;5085832;28;20051;-72
2022/07/18 06:04:41;;;;;;;13.75;7.55;;;;;;;15.28;72.37;102170.63;5084896;28;20442;-75
2022/07/18 06:07:06;;;;;;;14.35;8.00;;;;;;;15.36;72.23;102174.69;5085452;28;20043;-75
2022/07/18 06:09:31;;;;;;;17.05;8.07;;;;;;;15.46;71.79;102184.03;5084895;28;20115;-74
2022/07/18 06:12:00;;;;;;;16.02;9.63;;;;;;;15.55;71.70;102186.97;5074760;28;20040;-70
2022/07/18 06:14:27;;;;;;;15.88;7.03;;;;;;;15.62;71.45;102184.69;5084648;28;20047;-73
2022/07/18 06:16:52;;;;;;;18.50;9.05;;;;;;;15.69;70.59;102177.78;5084616;28;20039;-73
2022/07/18 06:19:18;;;;;;;12.10;7.78;;;;;;;15.74;70.42;102167.34;5085144;28;20035;-73
2022/07/18 06:21:43;;;;;;;17.23;8.27;;;;;;;15.80;70.49;102166.00;5085454;28;20050;-73
2022/07/18 06:24:09;;;;;;;10.77;7.75;;;;;;;15.88;72.13;102163.59;5084520;28;20035;-73
2022/07/18 06:26:34;;;;;;;15.85;7.90;;;;;;;15.97;71.74;102162.03;5083051;28;20024;-73
2022/07/18 06:28:59;;;;;;;20.35;8.45;;;;;;;16.10;71.40;102162.88;5087626;28;20036;-74
2022/07/18 06:31:25;;;;;;;20.15;8.77;;;;;;;16.20;70.66;102157.56;5087023;28;20451;-74
2022/07/18 06:33:50;;;;;;;14.27;8.00;;;;;;;16.28;70.09;102160.63;5088497;28;20824;-73
2022/07/18 06:36:17;;;;;;;16.42;8.88;;;;;;;16.37;70.23;102154.44;5103289;28;20023;-74
2022/07/18 06:38:42;;;;;;;19.85;8.43;;;;;;;16.44;70.58;102150.22;5109665;28;20548;-74
2022/07/18 06:41:08;;;;;;;15.07;8.30;;;;;;;16.51;70.17;102150.63;5100386;28;20035;-74
2022/07/18 06:43:33;;;;;;;18.17;8.35;;;;;;;16.54;71.42;102145.75;5087581;28;20056;-73
2022/07/18 06:45:59;;;;;;;14.80;7.90;;;;;;;16.71;71.41;102141.72;5087958;28;20032;-74
2022/07/18 06:48:24;;;;;;;21.33;8.02;;;;;;;16.87;70.67;102151.53;5089261;28;20024;-75
2022/07/18 06:50:50;;;;;;;12.80;7.38;;;;;;;17.00;70.14;102147.72;5088841;28;20093;-74
2022/07/18 06:53:15;;;;;;;16.58;8.25;;;;;;;17.14;70.49;102140.25;5089153;28;20043;-75
2022/07/18 06:55:41;;;;;;;15.50;7.40;;;;;;;17.29;70.18;102141.75;5088214;28;20569;-75
2022/07/18 06:58:06;;;;;;;20.20;7.10;;;;;;;17.43;69.42;102140.66;5086843;28;20502;-75
2022/07/18 07:00:32;;;;;;;19.75;7.97;;;;;;;17.57;68.70;102144.03;5099919;28;20039;-76
2022/07/18 07:02:57;;;;;;;21.13;8.65;;;;;;;17.66;69.46;102136.03;5108968;28;20031;-75
2022/07/18 07:05:22;;;;;;;13.23;6.60;;;;;;;17.75;68.07;102138.06;5106924;28;20176;-74
2022/07/18 07:07:48;;;;;;;16.40;6.40;;;;;;;17.88;67.48;102140.69;5087797;28;20028;-74
2022/07/18 07:10:16;;;;;;;20.63;7.00;;;;;;;18.04;67.16;102141.16;5087517;28;20024;-75
2022/07/18 07:12:50;;;;;;;14.02;6.93;;;;;;;18.19;66.39;102142.66;5088047;28;20118;-75
2022/07/18 07:15:18;;;;;;;14.55;7.03;;;;;;;18.32;66.59;102143.34;5088834;28;20063;-74
2022/07/18 07:17:44;;;;;;;18.50;7.03;;;;;;;18.46;66.71;102146.81;5087194;28;20032;-75
2022/07/18 07:20:10;;;;;;;16.65;6.63;;;;;;;18.58;66.42;102149.38;5087941;28;20547;-75
2022/07/18 07:22:46;;;;;;;16.33;6.93;;;;;;;18.78;65.86;102152.34;5087355;28;20024;-75
2022/07/18 07:25:15;;;;;;;16.08;6.25;;;;;;;19.02;63.80;102146.56;5086943;28;20042;-74
2022/07/18 07:27:41;;;;;;;17.63;6.15;;;;;;;19.36;64.54;102145.34;5093715;28;20101;-74
2022/07/18 07:30:07;;;;;;;14.15;6.03;;;;;;;19.58;62.87;102147.09;5087812;28;20441;-74
2022/07/18 07:32:35;;;;;;;14.88;6.40;;;;;;;19.70;61.31;102147.88;5095825;28;20028;-74
2022/07/18 07:35:01;;;;;;;13.73;5.35;;;;;;;19.84;62.10;102152.16;5108753;28;20036;-75
2022/07/18 07:37:26;;;;;;;14.18;4.55;;;;;;;20.03;58.53;102152.22;5089462;28;20027;-75
2022/07/18 07:39:52;;;;;;;16.20;3.63;;;;;;;20.13;58.06;102146.72;5085865;28;20530;-78
2022/07/18 07:42:17;;;;;;;11.57;3.78;;;;;;;20.25;58.13;102142.81;5086744;28;20092;-73
2022/07/18 07:44:42;;;;;;;10.10;3.97;;;;;;;20.37;55.67;102141.66;5086821;28;20067;-74
2022/07/18 07:47:08;;;;;;;8.40;3.40;;;;;;;20.48;55.72;102137.06;5086523;28;20108;-74
2022/07/18 07:49:34;;;;;;;8.40;3.33;;;;;;;20.59;55.01;102136.91;5086809;28;20097;-74
2022/07/18 07:52:00;;;;;;;7.70;3.45;;;;;;;20.69;54.03;102136.91;5087313;28;20122;-74
2022/07/18 07:54:26;;;;;;;9.23;3.00;;;;;;;20.77;53.43;102128.78;5086186;28;20067;-74
2022/07/18 07:56:51;;;;;;;9.98;3.30;;;;;;;20.84;53.52;102124.38;5086459;28;20043;-75
2022/07/18 07:59:17;;;;;;;7.80;2.88;;;;;;;20.93;54.48;102122.63;5086559;28;20071;-69
2022/07/18 08:01:42;;;;;;;10.55;3.38;;;;;;;21.09;54.76;102126.56;5086925;28;20056;-74
2022/07/18 08:04:08;;;;;;;16.65;3.88;;;;;;;21.30;49.74;102112.50;5087072;28;20036;-74
2022/07/18 08:06:33;;;;;;;21.83;4.28;;;;;;;21.53;53.15;102104.72;5085575;28;20424;-74
2022/07/18 08:08:59;;;;;;;8.95;2.97;;;;;;;21.82;50.57;102103.72;5086572;28;20405;-75
2022/07/18 08:11:24;;;;;;;8.57;3.03;;;;;;;22.09;48.02;102100.94;5085829;28;20126;-69
2022/07/18 08:13:49;;;;;;;9.40;3.25;;;;;;;22.82;52.04;102097.19;5086290;28;20032;-74
2022/07/18 08:16:15;;;;;;;13.63;3.05;;;;;;;23.61;50.07;102098.94;5086414;28;20046;-74
2022/07/18 08:18:40;;;;;;;8.32;2.35;;;;;;;24.26;47.52;102099.22;5087571;28;20489;-73
2022/07/18 08:21:05;;;;;;;8.20;2.20;;;;;;;24.97;45.61;102097.72;5086245;28;20085;-74
2022/07/18 08:23:31;;;;;;;5.53;2.00;;;;;;;25.52;42.08;102088.59;5085918;28;20043;-71
2022/07/18 08:25:56;;;;;;;8.10;2.53;;;;;;;26.30;42.58;102092.44;5084159;28;20039;-74
2022/07/18 08:28:21;;;;;;;11.13;2.25;;;;;;;26.85;40.85;102089.41;5085961;28;20047;-74
2022/07/18 08:30:47;;;;;;;5.55;1.77;;;;;;;27.29;36.82;102094.28;5085999;28;20179;-72
2022/07/18 08:33:12;;;;;;;2.85;1.73;;;;;;;27.56;37.23;102100.25;5086467;28;20024;-73
2022/07/18 08:35:37;;;;;;;5.07;1.70;;;;;;;27.91;37.15;102107.88;5086567;28;20044;-74
2022/07/18 08:38:03;;;;;;;4.28;2.03;;;;;;;28.36;36.78;102107.84;5107093;28;20494;-74
2022/07/18 08:40:29;;;;;;;14.50;2.78;;;;;;;28.89;36.52;102106.44;5086500;28;20142;-74
2022/07/18 08:42:58;;;;;;;5.97;1.98;;;;;;;29.11;34.04;102120.47;5083379;28;20024;-73
2022/07/18 08:45:24;;;;;;;7.60;1.73;;;;;;;29.24;32.84;102117.78;5086013;28;20093;-73
2022/07/18 08:47:51;;;;;;;6.68;2.22;;;;;;;29.62;32.91;102106.19;5083956;28;20105;-71
2022/07/18 08:50:17;;;;;;;6.97;2.13;;;;;;;30.02;33.96;102110.06;5085798;28;20028;-73
2022/07/18 08:52:44;;;;;;;11.40;3.97;;;;;;;30.05;32.89;102105.97;5086630;28;20604;-73
2022/07/18 08:55:10;;;;;;;6.00;1.92;;;;;;;30.23;32.29;102109.97;5086592;28;20433;-72
2022/07/18 08:57:36;;;;;;;3.97;2.42;;;;;;;30.41;30.94;102103.75;5089977;28;20031;-74
2022/07/18 09:00:09;;;;;;;6.20;2.15;;;;;;;30.69;32.64;102097.13;5086434;28;20081;-73
2022/07/18 09:02:35;;;;;;;5.70;2.00;;;;;;;31.02;31.41;102096.31;5085849;28;20109;-74
2022/07/18 09:05:02;;;;;;;9.23;2.40;;;;;;;31.25;31.81;102096.72;5085711;28;20024;-71
2022/07/18 09:07:30;;;;;;;6.50;2.20;;;;;;;31.55;32.12;102097.13;5085607;28;20118;-74
2022/07/18 09:09:57;;;;;;;5.93;2.15;;;;;;;31.59;30.79;102094.75;5091236;28;20032;-74
2022/07/18 09:12:25;;;;;;;4.93;1.50;;;;;;;31.75;31.41;102094.25;5095561;28;20043;-74
2022/07/18 09:14:51;;;;;;;9.35;2.13;;;;;;;31.88;27.56;102093.38;5084965;28;20047;-74
2022/07/18 09:17:22;;;;;;;9.48;2.25;;;;;;;32.07;29.88;102102.81;5085542;28;20078;-70
2022/07/18 09:19:59;;;;;;;;;;;;;;;32.25;33.25;102095.38;5085376;28;20036;-73
2022/07/18 09:22:27;;;;;;;5.38;2.25;;;;;;;32.55;29.85;102105.19;5085602;28;20006;-73
2022/07/18 09:24:59;;;;;;;5.82;1.98;;;;;;;32.84;29.47;102101.75;5093311;28;20406;-71
2022/07/18 09:27:33;;;;;;;8.32;2.30;;;;;;;32.93;29.14;102097.59;5083897;28;20043;-74
2022/07/18 09:30:16;;;;;;;4.25;1.63;;;;;;;32.91;30.39;102113.00;5087650;28;20395;-73
2022/07/18 09:32:43;;;;;;;9.32;2.40;;;;;;;32.76;30.91;102108.50;5084701;28;20521;-74
2022/07/18 09:35:12;;;;;;;12.18;2.50;;;;;;;32.87;30.28;102108.88;5085894;28;20391;-72
2022/07/18 09:37:39;;;;;;;7.55;2.20;;;;;;;33.16;30.50;102108.22;5085861;28;20020;-73
2022/07/18 09:40:16;;;;;;;14.80;2.30;;;;;;;32.91;31.99;102107.34;5085168;28;20055;-73
2022/07/18 09:42:42;;;;;;;9.45;2.67;;;;;;;33.00;28.53;102111.63;5091735;28;20088;-73
2022/07/18 09:45:07;;;;;;;11.50;2.80;;;;;;;33.08;31.93;102113.28;5103455;28;20028;-74
2022/07/18 09:47:49;;;;;;;10.57;2.38;;;;;;;33.24;30.14;102107.06;5104941;28;20092;-72
2022/07/18 09:50:27;;;;;;;7.63;2.35;;;;;;;33.28;31.63;102105.50;5084619;28;20036;-72
2022/07/18 09:53:05;;;;;;;13.27;2.63;;;;;;;33.61;31.07;102109.97;5084355;28;20040;-73
2022/07/18 09:55:31;;;;;;;8.13;2.78;;;;;;;33.75;29.27;102097.44;5084309;28;20039;-72
2022/07/18 09:58:06;;;;;;;10.55;2.47;;;;;;;33.69;30.47;102099.25;5090633;28;20378;-73
2022/07/18 10:00:34;;;;;;;9.85;2.40;;;;;;;34.00;28.95;102094.56;5091084;28;20402;-70
2022/07/18 10:03:01;;;;;;;7.68;2.40;;;;;;;34.16;28.66;102104.34;5086716;28;20051;-73
2022/07/18 10:05:29;;;;;;;8.30;2.38;;;;;;;34.25;29.15;102092.47;5088935;28;20116;-73
2022/07/18 10:07:55;;;;;;;19.20;3.05;;;;;;;34.48;28.61;102088.91;5089159;28;20047;-72
2022/07/18 10:10:24;;;;;;;7.55;2.33;;;;;;;34.59;27.11;102097.66;5088731;28;20032;-72
2022/07/18 10:12:52;;;;;;;8.75;2.60;;;;;;;34.76;27.62;102093.06;5087970;28;20565;-73
2022/07/18 10:15:19;;;;;;;11.02;2.63;;;;;;;34.51;27.98;102093.25;5088393;28;20365;-73
2022/07/18 10:17:45;;;;;;;6.90;2.05;;;;;;;34.61;28.62;102096.34;5093276;28;20396;-73
2022/07/18 10:20:11;;;;;;;7.45;2.22;;;;;;;34.59;26.65;102094.84;5105529;28;20019;-73
2022/07/18 10:22:42;;;;;;;8.65;2.38;;;;;;;34.68;27.88;102090.56;5092557;28;20050;-70
2022/07/18 10:25:10;;;;;;;5.53;2.22;;;;;;;34.74;28.29;102095.25;5084323;28;20428;-73
2022/07/18 10:27:50;;;;;;;10.68;2.60;;;;;;;34.75;30.44;102095.03;5096139;28;20053;-73
2022/07/18 10:30:16;;;;;;;5.97;2.10;;;;;;;34.85;27.82;102088.78;5097666;28;20050;-73
2022/07/18 10:32:42;;;;;;;8.18;2.33;;;;;;;34.91;30.02;102092.59;5086293;28;20049;-73
2022/07/18 10:35:10;;;;;;;9.32;2.22;;;;;;;35.21;28.46;102093.41;5093237;28;20088;-73
2022/07/18 10:37:37;;;;;;;6.57;2.20;;;;;;;35.33;27.15;102078.38;5102996;28;20530;-74
2022/07/18 10:40:29;;;;;;;9.57;2.10;;;;;;;35.50;28.50;102093.53;5088466;28;20131;-72
2022/07/18 10:43:29;;;;;;;6.68;2.22;;;;;;;35.48;28.01;102090.94;5084034;28;20421;-73
2022/07/18 10:45:55;;;;;;;6.43;2.42;;;;;;;35.22;24.00;102083.81;5087771;28;20040;-73
2022/07/18 10:48:33;;;;;;;10.43;2.50;;;;;;;35.14;27.68;102086.13;5089467;28;20038;-73
2022/07/18 10:51:09;;;;;;;7.97;2.60;;;;;;;35.14;27.31;102083.31;5107732;28;20118;-73
2022/07/18 10:53:59;;;;;;;3.45;2.03;;;;;;;35.27;28.22;102083.06;5107349;28;20066;-72
2022/07/18 10:56:28;;;;;;;7.47;2.53;;;;;;;35.39;27.41;102086.72;5089145;28;20111;-73
2022/07/18 10:58:57;;;;;;;9.70;2.33;;;;;;;35.43;27.65;102081.44;5087551;28;20031;-72
2022/07/18 11:01:24;;;;;;;10.13;3.10;;;;;;;35.65;30.76;102078.88;5087227;28;20456;-73
2022/07/18 11:04:10;;;;;;;6.57;2.10;;;;;;;35.68;27.84;102072.72;5088260;28;20494;-72
2022/07/18 11:07:15;;;;;;;4.25;2.10;;;;;;;36.10;29.52;102079.03;5088136;28;20048;-73
2022/07/18 11:09:42;;;;;;;4.03;2.00;;;;;;;35.86;27.77;102071.66;5031952;28;20094;-73
2022/07/18 11:12:28;;;;;;;10.60;2.30;;;;;;;35.83;28.24;102070.22;5037211;28;20045;-74
2022/07/18 11:15:10;;;;;;;4.57;1.85;;;;;;;36.05;27.96;102076.09;5063818;28;20047;-72
2022/07/18 11:17:51;;;;;;;8.52;2.33;;;;;;;36.20;28.83;102069.88;5088783;27;20503;-74
2022/07/18 11:20:25;;;;;;;4.43;2.20;;;;;;;36.45;26.43;102078.91;5087838;28;20035;-68
2022/07/18 11:22:51;;;;;;;4.22;1.83;;;;;;;36.41;23.93;102066.31;5087541;28;20042;-73
2022/07/18 11:25:18;;;;;;;3.97;2.20;;;;;;;36.38;23.77;102069.66;5100947;28;20035;-73